Time;durP1;ratioP1;P1;durP2;ratioP2;P2;SDS_P1;SDS_P2;PMS_P1;PMS_P2;Temp;Humidity;BMP_temperature;BMP_pressure;BME280_temperature;BME280_humidity;BME280_pressure;Samples;Min_cycle;Max_cycle;Signal;HPM_P1;HPM_P2
2022/08/30 00:01:14;;;;;;;11.57;2.35;;;;;;;26.89;33.43;101673.31;5055452;28;20470;-60
2022/08/30 00:03:44;;;;;;;4.05;2.00;;;;;;;26.88;33.69;101674.41;5055519;28;20024;-60
2022/08/30 00:06:11;;;;;;;6.03;2.03;;;;;;;26.87;33.35;101677.34;5037385;28;20041;-61
2022/08/30 00:08:37;;;;;;;5.65;2.05;;;;;;;26.85;33.49;101677.59;5054245;28;20025;-60
2022/08/30 00:11:04;;;;;;;4.53;1.90;;;;;;;26.84;33.30;101684.13;5054374;28;20106;-60
2022/08/30 00:13:30;;;;;;;7.57;2.03;;;;;;;26.82;34.08;101683.50;5054101;28;20033;-61
2022/08/30 00:15:55;;;;;;;8.85;1.50;;;;;;;26.78;34.00;101679.47;5055280;28;20479;-61
2022/08/30 00:18:25;;;;;;;7.93;1.63;;;;;;;26.72;33.83;101672.06;5055299;28;20025;-61
2022/08/30 00:20:51;;;;;;;6.55;1.90;;;;;;;26.74;33.87;101682.84;5021605;28;20466;-61
2022/08/30 00:23:17;;;;;;;4.50;1.95;;;;;;;26.69;34.16;101669.72;5053995;28;20040;-61
2022/08/30 00:25:43;;;;;;;5.63;1.90;;;;;;;26.68;34.20;101675.47;5055094;28;20056;-61
2022/08/30 00:28:10;;;;;;;3.70;1.70;;;;;;;26.67;34.12;101673.75;5054930;28;20521;-61
2022/08/30 00:30:36;;;;;;;5.65;1.50;;;;;;;26.63;33.93;101674.19;5054959;28;20024;-61
2022/08/30 00:33:01;;;;;;;9.20;1.95;;;;;;;26.63;34.27;101676.94;5053741;28;20078;-61
2022/08/30 00:35:26;;;;;;;3.47;1.85;;;;;;;26.63;34.13;101676.94;5053665;28;20597;-60
2022/08/30 00:37:52;;;;;;;5.00;1.50;;;;;;;26.62;33.96;101677.16;5054876;28;20079;-60
2022/08/30 00:40:19;;;;;;;4.43;1.58;;;;;;;26.62;34.40;101682.66;5054782;28;20061;-61
2022/08/30 00:42:46;;;;;;;4.32;1.63;;;;;;;26.60;34.98;101684.78;5053553;28;20055;-61
2022/08/30 00:45:14;;;;;;;5.13;1.63;;;;;;;26.56;34.54;101678.00;5053697;28;20024;-61
2022/08/30 00:47:39;;;;;;;4.57;1.52;;;;;;;26.57;34.67;101685.22;5054695;28;20075;-61
2022/08/30 00:50:07;;;;;;;3.65;1.80;;;;;;;26.53;34.57;101683.94;5053363;28;20025;-61
2022/08/30 00:52:34;;;;;;;3.95;1.70;;;;;;;26.52;35.01;101679.50;5053651;28;20050;-61
2022/08/30 00:55:00;;;;;;;3.78;1.52;;;;;;;26.48;34.94;101670.84;5054399;28;20380;-61
2022/08/30 00:57:26;;;;;;;2.90;1.30;;;;;;;26.44;34.81;101669.56;5053383;28;20489;-61
2022/08/30 00:59:51;;;;;;;7.65;2.15;;;;;;;26.47;34.81;101679.28;5053139;28;20036;-61
2022/08/30 01:02:19;;;;;;;4.93;1.67;;;;;;;26.36;34.71;101655.19;5053197;28;20072;-61
2022/08/30 01:04:45;;;;;;;4.55;1.90;;;;;;;26.45;34.86;101673.16;5054354;28;20029;-61
2022/08/30 01:07:10;;;;;;;7.97;1.60;;;;;;;26.45;35.28;101676.75;5053146;28;20032;-61
2022/08/30 01:09:36;;;;;;;3.75;2.00;;;;;;;26.46;35.32;101677.59;5054216;28;20078;-61
2022/08/30 01:12:02;;;;;;;5.72;2.08;;;;;;;26.40;35.03;101668.31;5053103;28;20052;-60
2022/08/30 01:14:28;;;;;;;4.57;1.88;;;;;;;26.41;35.16;101680.16;5052844;28;20029;-61
2022/08/30 01:16:55;;;;;;;9.75;2.13;;;;;;;26.41;35.39;101688.41;5054149;28;20041;-61
2022/08/30 01:19:34;;;;;;;6.72;2.22;;;;;;;26.36;35.61;101679.91;5052493;28;20068;-61
2022/08/30 01:22:10;;;;;;;4.18;1.65;;;;;;;26.36;35.42;101686.25;5053841;28;20387;-61
2022/08/30 01:24:36;;;;;;;4.85;2.42;;;;;;;26.32;35.49;101676.78;5052697;28;20021;-61
2022/08/30 01:27:01;;;;;;;6.60;1.95;;;;;;;26.34;35.63;101684.78;5052720;28;20029;-61
2022/08/30 01:29:27;;;;;;;11.20;1.85;;;;;;;26.32;35.83;101681.41;5053429;28;20110;-61
2022/08/30 01:31:52;;;;;;;4.82;1.88;;;;;;;26.30;35.32;101678.88;5052581;28;20051;-61
2022/08/30 01:34:18;;;;;;;5.20;1.90;;;;;;;26.26;35.30;101680.34;5053704;28;20025;-60
2022/08/30 01:36:45;;;;;;;9.05;1.63;;;;;;;26.29;35.31;101692.81;5053772;28;20028;-61
2022/08/30 01:39:16;;;;;;;3.72;1.83;;;;;;;26.28;35.95;101699.38;5052611;28;20021;-61
2022/08/30 01:41:42;;;;;;;4.55;1.83;;;;;;;26.26;35.44;101694.09;5053686;28;20024;-61
2022/08/30 01:44:09;;;;;;;5.90;2.05;;;;;;;26.25;35.60;101691.53;5053557;28;20076;-61
2022/08/30 01:46:39;;;;;;;8.10;2.20;;;;;;;26.24;36.01;101689.88;5052275;28;20027;-60
2022/08/30 01:49:09;;;;;;;6.28;2.00;;;;;;;26.21;35.69;101691.16;5052189;28;20025;-61
2022/08/30 01:51:34;;;;;;;5.97;2.10;;;;;;;26.20;35.75;101689.44;5053447;28;20105;-61
2022/08/30 01:54:00;;;;;;;3.70;1.83;;;;;;;26.20;35.45;101683.94;5052087;28;20487;-61
2022/08/30 01:56:27;;;;;;;4.03;1.88;;;;;;;26.18;36.21;101679.72;5053283;28;20100;-62
2022/08/30 01:58:54;;;;;;;5.50;1.95;;;;;;;26.15;35.90;101677.41;5052079;28;20041;-61
2022/08/30 02:01:22;;;;;;;5.30;1.88;;;;;;;26.14;36.50;101678.44;5052374;28;20025;-62
2022/08/30 02:03:47;;;;;;;3.40;1.65;;;;;;;26.10;36.33;101678.00;5052147;28;20108;-62
2022/08/30 02:06:17;;;;;;;5.85;1.65;;;;;;;26.10;36.11;101674.41;5053136;28;20037;-61
2022/08/30 02:08:42;;;;;;;5.75;1.85;;;;;;;26.09;36.18;101673.56;5053294;28;20039;-62
2022/08/30 02:11:08;;;;;;;4.97;2.30;;;;;;;26.05;36.22;101681.34;5035409;28;20049;-62
2022/08/30 02:13:36;;;;;;;5.25;1.88;;;;;;;26.02;36.66;101673.53;5051952;28;20024;-61
2022/08/30 02:16:02;;;;;;;7.80;2.20;;;;;;;25.97;36.55;101676.06;5053038;28;20021;-61
2022/08/30 02:18:28;;;;;;;3.90;2.05;;;;;;;25.93;36.65;101677.56;5051954;28;20032;-61
2022/08/30 02:20:53;;;;;;;9.00;2.70;;;;;;;25.91;36.78;101679.66;5052761;28;20147;-61
2022/08/30 02:23:19;;;;;;;5.20;2.08;;;;;;;25.90;36.62;101682.63;5051871;28;20032;-61
2022/08/30 02:25:45;;;;;;;3.03;2.08;;;;;;;25.87;36.58;101674.78;5053176;28;20108;-61
2022/08/30 02:28:12;;;;;;;6.82;2.10;;;;;;;25.78;37.01;101665.06;5053131;28;20040;-62
2022/08/30 02:30:38;;;;;;;6.40;2.85;;;;;;;25.79;37.10;101675.84;5052059;28;20363;-61
2022/08/30 02:33:03;;;;;;;3.50;1.88;;;;;;;25.79;37.07;101670.34;5053227;28;20051;-61
2022/08/30 02:35:29;;;;;;;5.78;2.13;;;;;;;25.77;36.75;101669.69;5053089;28;20029;-61
2022/08/30 02:37:54;;;;;;;7.32;2.10;;;;;;;25.74;37.13;101666.53;5053064;28;20382;-61
2022/08/30 02:40:21;;;;;;;9.77;2.13;;;;;;;25.74;37.30;101661.88;5052876;28;20120;-61
2022/08/30 02:42:47;;;;;;;4.13;1.73;;;;;;;25.75;37.22;101657.22;5056164;28;20032;-61
2022/08/30 02:45:12;;;;;;;5.32;2.08;;;;;;;25.77;37.65;101661.47;5055751;28;20025;-61
2022/08/30 02:47:38;;;;;;;5.30;1.90;;;;;;;25.78;37.26;101662.31;5039116;28;20394;-62
2022/08/30 02:50:05;;;;;;;5.68;2.35;;;;;;;25.80;37.60;101661.03;5056930;28;20033;-61
2022/08/30 02:52:30;;;;;;;7.47;2.38;;;;;;;25.80;37.53;101654.69;5057106;28;20445;-62
2022/08/30 02:54:55;;;;;;;9.73;2.78;;;;;;;25.81;37.35;101659.16;5038945;28;20052;-61
2022/08/30 02:57:21;;;;;;;8.30;2.78;;;;;;;25.80;36.85;101660.19;5055476;28;20082;-61
2022/08/30 02:59:47;;;;;;;4.70;1.92;;;;;;;25.81;37.80;101646.28;5056632;28;20025;-61
2022/08/30 03:02:12;;;;;;;8.55;2.22;;;;;;;25.85;37.92;101657.69;5056720;28;20114;-61
2022/08/30 03:04:38;;;;;;;4.60;2.47;;;;;;;25.84;37.39;101651.34;5055344;28;20032;-61
2022/08/30 03:07:05;;;;;;;3.55;1.90;;;;;;;25.82;37.96;101652.63;5055499;28;20048;-62
2022/08/30 03:09:31;;;;;;;4.38;2.17;;;;;;;25.83;37.48;101660.63;5055414;28;20024;-61
2022/08/30 03:11:56;;;;;;;5.55;2.13;;;;;;;25.83;38.07;101657.03;5056665;28;20033;-61
2022/08/30 03:14:23;;;;;;;4.43;2.33;;;;;;;25.81;37.96;101657.25;5056438;28;20086;-62
2022/08/30 03:16:48;;;;;;;4.20;2.38;;;;;;;25.81;37.91;101646.28;5055507;28;20028;-62
2022/08/30 03:19:14;;;;;;;4.10;1.90;;;;;;;25.81;37.90;101651.75;5056118;28;20136;-61
2022/08/30 03:21:39;;;;;;;12.07;1.98;;;;;;;25.78;38.04;101651.31;5056341;28;20490;-61
2022/08/30 03:24:05;;;;;;;6.88;2.30;;;;;;;25.76;38.36;101645.22;5054846;28;20037;-61
2022/08/30 03:26:30;;;;;;;6.75;2.33;;;;;;;25.80;38.44;101643.72;5056089;28;20547;-61
2022/08/30 03:28:55;;;;;;;3.50;2.13;;;;;;;25.80;38.60;101641.81;5056090;28;20029;-61
2022/08/30 03:31:21;;;;;;;2.83;2.05;;;;;;;25.77;38.61;101642.25;5056154;28;20474;-61
2022/08/30 03:33:46;;;;;;;9.65;3.15;;;;;;;25.78;39.01;101643.94;5054830;28;20032;-61
2022/08/30 03:36:11;;;;;;;7.68;2.60;;;;;;;25.78;38.90;101640.34;5054710;28;20041;-61
2022/08/30 03:38:38;;;;;;;5.18;2.58;;;;;;;25.75;38.48;101643.50;5054915;28;20029;-62
2022/08/30 03:41:04;;;;;;;8.48;2.17;;;;;;;25.75;38.56;101646.25;5054720;28;20032;-61
2022/08/30 03:43:32;;;;;;;7.90;2.58;;;;;;;25.73;38.44;101643.72;5054911;28;20401;-61
2022/08/30 03:45:59;;;;;;;10.10;2.95;;;;;;;25.71;38.81;101645.81;5055783;28;20025;-61
2022/08/30 03:48:24;;;;;;;3.75;2.33;;;;;;;25.70;38.66;101644.16;5055993;28;20033;-62
2022/08/30 03:50:50;;;;;;;5.15;2.65;;;;;;;25.70;38.66;101641.41;5056003;28;20104;-62
2022/08/30 03:53:16;;;;;;;9.40;3.30;;;;;;;25.68;38.80;101643.50;5054000;28;20112;-62
2022/08/30 03:55:41;;;;;;;8.18;2.35;;;;;;;25.63;38.80;101637.78;5055691;28;20028;-62
2022/08/30 03:58:06;;;;;;;5.10;2.63;;;;;;;25.68;38.62;101651.75;5054309;28;20078;-61
2022/08/30 04:00:32;;;;;;;6.07;2.67;;;;;;;25.65;39.32;101649.41;5055487;28;20068;-62
2022/08/30 04:02:57;;;;;;;7.78;3.13;;;;;;;25.66;39.35;101650.25;5055536;28;20056;-62
2022/08/30 04:05:23;;;;;;;6.60;2.75;;;;;;;25.63;39.01;101648.75;5054068;28;20028;-62
2022/08/30 04:07:48;;;;;;;12.52;3.15;;;;;;;25.62;39.40;101652.56;5055214;28;20043;-61
2022/08/30 04:10:14;;;;;;;5.75;2.72;;;;;;;25.60;39.50;101651.91;5055370;28;20017;-61
2022/08/30 04:12:40;;;;;;;6.70;2.70;;;;;;;25.61;39.47;101658.25;5054282;28;20393;-61
2022/08/30 04:15:08;;;;;;;7.05;2.70;;;;;;;25.55;39.23;101646.22;5054294;28;20048;-61
2022/08/30 04:17:33;;;;;;;6.15;2.80;;;;;;;25.60;39.50;101656.59;5055385;28;20029;-61
2022/08/30 04:19:58;;;;;;;7.65;2.75;;;;;;;25.59;39.76;101658.47;5055063;28;20379;-61
2022/08/30 04:22:24;;;;;;;4.38;2.85;;;;;;;25.58;39.74;101654.03;5056268;28;20029;-61
2022/08/30 04:24:49;;;;;;;5.70;2.78;;;;;;;25.58;39.60;101667.75;5055313;28;20039;-62
2022/08/30 04:27:18;;;;;;;6.20;2.40;;;;;;;25.57;39.42;101676.22;5055085;28;20029;-62
2022/08/30 04:29:44;;;;;;;5.97;2.92;;;;;;;25.56;39.81;101669.88;5037971;28;20033;-62
2022/08/30 04:32:10;;;;;;;6.97;2.83;;;;;;;25.54;39.73;101661.00;5055188;28;20078;-62
2022/08/30 04:34:35;;;;;;;5.18;2.55;;;;;;;25.54;40.17;101666.50;5054882;28;20020;-63
2022/08/30 04:37:00;;;;;;;10.35;3.10;;;;;;;25.54;39.63;101669.25;5054779;28;20068;-62
2022/08/30 04:39:26;;;;;;;5.07;2.97;;;;;;;25.55;40.21;101670.91;5054632;28;20025;-62
2022/08/30 04:41:51;;;;;;;3.85;2.78;;;;;;;25.54;40.28;101669.25;5053745;28;20033;-62
2022/08/30 04:44:16;;;;;;;6.07;2.83;;;;;;;25.54;39.48;101676.63;5054771;28;20417;-62
2022/08/30 04:46:42;;;;;;;12.50;2.80;;;;;;;25.55;39.65;101684.63;5054786;28;20494;-62
2022/08/30 04:49:07;;;;;;;6.95;2.92;;;;;;;25.53;39.88;101675.78;5055510;28;20025;-62
2022/08/30 04:51:32;;;;;;;6.55;2.72;;;;;;;25.56;39.68;101674.50;5054586;28;20033;-62
2022/08/30 04:53:58;;;;;;;8.65;3.47;;;;;;;25.56;39.85;101678.09;5054399;28;20116;-62
2022/08/30 04:56:23;;;;;;;9.18;2.58;;;;;;;25.57;39.94;101677.06;5054441;28;20496;-62
2022/08/30 04:58:52;;;;;;;7.55;3.10;;;;;;;25.56;40.33;101677.25;5053240;28;20553;-62
2022/08/30 05:01:26;;;;;;;5.68;3.20;;;;;;;25.56;40.10;101683.59;5054337;28;20024;-62
2022/08/30 05:03:52;;;;;;;7.65;3.35;;;;;;;25.56;40.21;101689.06;5052833;28;20029;-62
2022/08/30 05:06:18;;;;;;;6.65;3.25;;;;;;;25.54;40.19;101682.97;5054306;28;20454;-62
2022/08/30 05:08:44;;;;;;;5.20;2.72;;;;;;;25.58;40.39;101686.97;5053329;28;20024;-63
2022/08/30 05:11:10;;;;;;;6.20;2.88;;;;;;;25.58;40.18;101689.72;5036317;28;20033;-63
2022/08/30 05:13:36;;;;;;;5.32;2.85;;;;;;;25.60;40.76;101689.53;5036289;28;20070;-62
2022/08/30 05:16:03;;;;;;;6.80;2.97;;;;;;;25.60;40.69;101687.59;5052781;28;20029;-63
2022/08/30 05:18:28;;;;;;;6.38;2.67;;;;;;;25.62;40.62;101690.16;5053941;28;20028;-62
2022/08/30 05:21:08;;;;;;;10.52;2.90;;;;;;;25.64;40.40;101694.38;5053774;28;20494;-62
2022/08/30 05:23:34;;;;;;;5.22;2.50;;;;;;;25.65;40.81;101690.59;5054001;28;20024;-62
2022/08/30 05:26:24;;;;;;;5.07;2.88;;;;;;;25.66;40.60;101696.91;5053926;28;20029;-62
2022/08/30 05:28:49;;;;;;;8.50;3.05;;;;;;;25.67;40.22;101693.97;5053570;28;20041;-62
2022/08/30 05:31:23;;;;;;;8.77;3.22;;;;;;;25.69;40.44;101688.25;5052665;28;20021;-60
2022/08/30 05:33:50;;;;;;;9.00;2.65;;;;;;;25.71;40.80;101700.72;5053828;28;20025;-62
2022/08/30 05:36:17;;;;;;;6.07;2.90;;;;;;;25.73;40.27;101704.13;5052546;28;20033;-62
2022/08/30 05:38:43;;;;;;;8.25;3.30;;;;;;;25.75;40.61;101702.00;5035987;28;20047;-62
2022/08/30 05:41:09;;;;;;;7.70;3.13;;;;;;;25.79;40.79;101705.19;5052258;28;20033;-62
2022/08/30 05:43:35;;;;;;;9.43;3.50;;;;;;;25.81;40.44;101695.69;5053567;28;20032;-61
2022/08/30 05:46:03;;;;;;;4.40;2.53;;;;;;;25.81;40.69;101700.34;5053594;28;20021;-62
2022/08/30 05:48:28;;;;;;;5.53;2.75;;;;;;;25.81;40.52;101701.19;5035688;28;20029;-62
2022/08/30 05:51:21;;;;;;;7.68;3.35;;;;;;;25.88;40.18;101702.03;5053712;28;20032;-62
2022/08/30 05:53:47;;;;;;;7.90;3.17;;;;;;;25.90;40.63;101705.44;5053241;28;20048;-60
2022/08/30 05:56:15;;;;;;;7.43;2.83;;;;;;;25.90;40.41;101699.94;5052306;28;20029;-61
2022/08/30 05:58:41;;;;;;;4.88;3.00;;;;;;;25.91;40.15;101696.13;5053837;28;20387;-61
2022/08/30 06:01:28;;;;;;;7.13;3.22;;;;;;;25.92;40.67;101703.31;5053445;28;20021;-61
2022/08/30 06:03:54;;;;;;;5.63;3.28;;;;;;;25.96;40.76;101704.56;5052246;28;20033;-61
2022/08/30 06:06:21;;;;;;;5.47;3.42;;;;;;;25.97;41.07;101698.03;5052884;28;20043;-61
2022/08/30 06:08:47;;;;;;;7.05;2.95;;;;;;;26.03;40.43;101704.59;5053165;28;20029;-61
2022/08/30 06:11:15;;;;;;;6.70;3.20;;;;;;;26.05;40.69;101702.47;5035835;28;20020;-62
2022/08/30 06:13:41;;;;;;;8.57;2.95;;;;;;;26.07;40.35;101705.03;5053357;28;20108;-62
2022/08/30 06:16:07;;;;;;;9.43;3.20;;;;;;;26.08;40.27;101706.72;5052995;28;20559;-61
2022/08/30 06:18:32;;;;;;;7.10;2.80;;;;;;;26.07;40.67;101705.88;5053105;28;20486;-61
2022/08/30 06:20:58;;;;;;;6.40;2.85;;;;;;;26.07;40.54;101705.03;5052825;28;20091;-61
2022/08/30 06:23:23;;;;;;;8.20;4.13;;;;;;;26.09;40.41;101702.91;5053236;28;20053;-62
2022/08/30 06:25:49;;;;;;;7.03;2.92;;;;;;;26.10;40.37;101693.63;5053267;28;20363;-60
2022/08/30 06:28:15;;;;;;;9.80;3.28;;;;;;;26.12;40.69;101691.50;5035445;28;20092;-61
2022/08/30 06:30:41;;;;;;;5.72;3.22;;;;;;;26.18;40.74;101690.72;5051795;28;20494;-58
2022/08/30 06:33:07;;;;;;;8.02;3.80;;;;;;;26.33;40.45;101700.44;5051869;28;20051;-59
2022/08/30 06:35:33;;;;;;;7.07;3.17;;;;;;;26.48;39.93;101703.81;5052017;28;20032;-58
2022/08/30 06:37:58;;;;;;;7.90;3.35;;;;;;;26.62;39.75;101696.41;5052861;28;20029;-59
2022/08/30 06:40:24;;;;;;;6.78;3.20;;;;;;;26.68;40.33;101697.44;5052941;28;20033;-58
2022/08/30 06:42:50;;;;;;;8.05;2.72;;;;;;;26.80;40.52;101699.34;5051998;28;20105;-58
2022/08/30 06:45:16;;;;;;;5.95;3.33;;;;;;;26.96;40.72;101696.16;5051951;28;20032;-59
2022/08/30 06:47:41;;;;;;;8.23;3.67;;;;;;;27.19;39.17;101702.00;5053092;28;20032;-59
2022/08/30 06:50:08;;;;;;;7.82;3.53;;;;;;;27.43;39.59;101705.97;5051632;28;20029;-59
2022/08/30 06:52:33;;;;;;;6.60;3.28;;;;;;;27.68;39.74;101711.56;5051845;28;20469;-60
2022/08/30 06:54:59;;;;;;;9.65;3.70;;;;;;;27.82;38.77;101696.66;5052825;28;20136;-59
2022/08/30 06:57:25;;;;;;;9.27;3.25;;;;;;;27.81;38.80;101705.97;5052816;28;20029;-59
2022/08/30 06:59:55;;;;;;;6.70;2.78;;;;;;;27.86;39.35;101697.94;5052776;28;20032;-59
2022/08/30 07:02:21;;;;;;;6.25;3.13;;;;;;;27.88;39.54;101693.03;5051492;28;20044;-59
2022/08/30 07:04:47;;;;;;;6.15;3.00;;;;;;;27.94;39.45;101710.56;5051453;28;20020;-59
2022/08/30 07:07:13;;;;;;;6.57;2.67;;;;;;;28.00;39.15;101707.75;5034783;28;20498;-59
2022/08/30 07:09:42;;;;;;;12.45;3.20;;;;;;;28.07;38.34;101700.34;5052630;28;20466;-59
2022/08/30 07:12:08;;;;;;;5.32;2.60;;;;;;;28.11;38.43;101698.81;5053042;28;20036;-59
2022/08/30 07:14:34;;;;;;;5.13;3.03;;;;;;;28.16;39.10;101699.00;5052554;28;20033;-60
2022/08/30 07:16:59;;;;;;;5.60;2.80;;;;;;;28.17;38.52;101695.16;5052558;28;20031;-59
2022/08/30 07:19:25;;;;;;;5.25;2.25;;;;;;;28.21;38.33;101701.94;5051378;28;20061;-59
2022/08/30 07:21:50;;;;;;;5.85;2.60;;;;;;;28.27;38.88;101701.03;5052591;28;20578;-59
2022/08/30 07:24:16;;;;;;;8.38;2.90;;;;;;;28.27;38.63;101695.53;5051219;28;20154;-61
2022/08/30 07:26:46;;;;;;;4.65;2.65;;;;;;;28.30;39.18;101697.00;5051298;28;20044;-60
2022/08/30 07:29:11;;;;;;;3.55;2.55;;;;;;;28.29;38.22;101698.06;5056104;28;20102;-59
2022/08/30 07:31:37;;;;;;;6.95;3.08;;;;;;;28.44;38.33;101695.81;5056084;28;20463;-59
2022/08/30 07:34:04;;;;;;;7.15;2.80;;;;;;;28.46;38.84;101696.41;5056016;28;20036;-59
2022/08/30 07:36:29;;;;;;;8.88;2.65;;;;;;;28.47;37.73;101700.03;5054833;28;20478;-60
2022/08/30 07:38:55;;;;;;;5.68;2.42;;;;;;;28.58;38.15;101707.56;5054685;28;20028;-60
2022/08/30 07:41:26;;;;;;;7.53;2.47;;;;;;;28.82;38.56;101706.72;5055896;28;20029;-60
2022/08/30 07:43:52;;;;;;;9.05;2.50;;;;;;;28.93;38.20;101697.69;5038009;28;20106;-60
2022/08/30 07:46:18;;;;;;;3.20;1.88;;;;;;;29.14;38.15;101700.00;5037805;28;20486;-61
2022/08/30 07:48:44;;;;;;;7.53;2.30;;;;;;;29.24;37.44;101697.56;5055922;28;20035;-60
2022/08/30 07:51:11;;;;;;;3.55;1.92;;;;;;;29.38;36.97;101704.63;5054588;28;20386;-59
2022/08/30 07:53:37;;;;;;;4.03;1.85;;;;;;;29.55;37.77;101703.97;5055617;28;20056;-59
2022/08/30 07:56:03;;;;;;;2.92;1.73;;;;;;;29.73;36.92;101706.72;5054752;28;20037;-59
2022/08/30 07:58:28;;;;;;;3.00;1.90;;;;;;;29.87;36.58;101708.25;5054417;28;20032;-59
2022/08/30 08:00:58;;;;;;;9.50;1.73;;;;;;;30.02;36.91;101706.72;5055588;28;20017;-59
2022/08/30 08:03:23;;;;;;;4.35;2.08;;;;;;;30.15;37.05;101705.66;5055811;28;20041;-60
2022/08/30 08:05:49;;;;;;;3.75;1.65;;;;;;;30.33;36.61;101710.28;5055552;28;20437;-59
2022/08/30 08:08:14;;;;;;;5.28;2.50;;;;;;;30.50;36.72;101700.22;5055670;28;20057;-60
2022/08/30 08:10:41;;;;;;;9.88;3.05;;;;;;;30.63;35.78;101707.47;5055411;28;20086;-59
2022/08/30 08:13:06;;;;;;;10.02;1.48;;;;;;;30.63;36.58;101708.28;5055582;28;20158;-59
2022/08/30 08:15:32;;;;;;;4.30;1.80;;;;;;;30.66;36.25;101709.72;5054069;28;20059;-60
2022/08/30 08:17:57;;;;;;;6.00;2.03;;;;;;;30.85;35.68;101705.78;5055361;28;20025;-60
2022/08/30 08:20:25;;;;;;;3.30;2.15;;;;;;;31.00;35.27;101708.91;5055119;28;20075;-60
2022/08/30 08:22:51;;;;;;;4.57;1.80;;;;;;;31.09;35.39;101711.06;5055208;28;20025;-59
2022/08/30 08:25:16;;;;;;;4.50;1.73;;;;;;;31.21;35.01;101705.53;5053926;28;20040;-59
2022/08/30 08:27:42;;;;;;;3.47;1.80;;;;;;;31.29;35.21;101716.22;5054411;28;20033;-59
2022/08/30 08:30:08;;;;;;;3.28;1.70;;;;;;;31.35;35.06;101723.53;5055079;28;20020;-59
2022/08/30 08:32:34;;;;;;;7.53;1.63;;;;;;;31.62;34.60;101713.63;5053935;28;20375;-59
2022/08/30 08:34:59;;;;;;;9.48;2.30;;;;;;;31.77;34.46;101715.81;5054956;28;20028;-60
2022/08/30 08:37:26;;;;;;;4.03;1.67;;;;;;;31.84;34.63;101719.31;5054974;28;20025;-59
2022/08/30 08:39:52;;;;;;;6.28;1.70;;;;;;;31.90;34.22;101720.25;5053483;28;20033;-59
2022/08/30 08:42:26;;;;;;;7.97;1.75;;;;;;;31.95;34.12;101723.09;5036899;28;20021;-59
2022/08/30 08:45:05;;;;;;;6.00;1.70;;;;;;;32.04;33.80;101722.50;5054817;28;20029;-59
2022/08/30 08:47:39;;;;;;;1.55;1.23;;;;;;;32.13;34.38;101720.16;5054689;28;20540;-60
2022/08/30 08:50:14;;;;;;;3.30;1.35;;;;;;;32.55;33.98;101712.31;5054708;28;20025;-60
2022/08/30 08:55:34;;;;;;;2.15;1.35;;;;;;;33.03;33.76;101712.47;5053789;28;20048;-59
2022/08/30 08:58:00;;;;;;;3.38;1.40;;;;;;;32.96;32.96;101705.44;5053567;28;20474;-60
2022/08/30 09:00:25;;;;;;;2.95;1.60;;;;;;;32.92;32.89;101707.03;5036584;28;20486;-56
2022/08/30 09:02:56;;;;;;;5.28;1.65;;;;;;;33.11;32.21;101706.50;5053224;28;20487;-59
2022/08/30 09:05:24;;;;;;;7.75;1.95;;;;;;;33.03;33.17;101700.53;5054582;28;20021;-59
2022/08/30 09:08:13;;;;;;;1.90;1.65;;;;;;;33.39;32.47;101708.28;5054899;28;20055;-60
2022/08/30 09:10:40;;;;;;;6.13;1.30;;;;;;;33.73;32.58;101709.81;5054443;28;20103;-59
2022/08/30 09:13:05;;;;;;;5.90;1.80;;;;;;;34.00;32.15;101700.63;5053193;28;20028;-59
2022/08/30 09:15:32;;;;;;;3.58;1.65;;;;;;;34.31;30.83;101699.84;5053133;28;20425;-60
2022/08/30 09:18:00;;;;;;;5.70;1.08;;;;;;;34.55;31.08;101695.59;5053119;28;20025;-59
2022/08/30 09:20:33;;;;;;;3.78;1.80;;;;;;;34.86;31.05;101705.84;5052722;28;20045;-59
2022/08/30 09:23:19;;;;;;;8.45;1.42;;;;;;;35.07;31.00;101699.31;5054024;28;20535;-59
2022/08/30 09:25:51;;;;;;;3.95;1.55;;;;;;;34.91;31.07;101696.69;5052819;28;20025;-59
2022/08/30 09:28:22;;;;;;;5.45;1.65;;;;;;;34.91;30.29;101699.47;5054274;28;20495;-58
2022/08/30 09:31:17;;;;;;;4.07;1.40;;;;;;;35.26;29.64;101696.88;5052805;28;20428;-59
2022/08/30 09:34:04;;;;;;;5.05;1.92;;;;;;;35.41;30.10;101698.91;5053094;28;20024;-60
2022/08/30 09:36:40;;;;;;;3.63;1.52;;;;;;;35.69;29.73;101706.00;5054036;28;20040;-60
2022/08/30 09:39:19;;;;;;;3.53;1.50;;;;;;;36.01;29.39;101707.47;5053957;28;20382;-60
2022/08/30 09:41:48;;;;;;;6.18;1.70;;;;;;;36.13;29.22;101705.28;5054285;28;20112;-60
2022/08/30 09:44:21;;;;;;;5.38;1.77;;;;;;;36.41;28.86;101694.66;5052570;28;20394;-59
2022/08/30 09:46:55;;;;;;;5.82;1.77;;;;;;;36.75;28.83;101692.97;5052597;28;20031;-59
2022/08/30 09:49:30;;;;;;;5.05;1.80;;;;;;;37.10;28.43;101701.31;5052488;28;20102;-60
2022/08/30 09:52:13;;;;;;;4.22;1.40;;;;;;;37.65;28.33;101691.84;5053340;28;20029;-60
2022/08/30 09:55:08;;;;;;;2.85;1.70;;;;;;;38.55;27.36;101699.91;5053547;28;20386;-60
2022/08/30 09:57:47;;;;;;;4.28;1.45;;;;;;;39.53;26.27;101689.78;5053092;28;20072;-59
2022/08/30 10:00:17;;;;;;;6.50;1.92;;;;;;;39.29;25.87;101677.78;5053539;28;20029;-60
2022/08/30 10:03:13;;;;;;;5.43;1.85;;;;;;;38.95;26.36;101688.28;5053363;28;20027;-60
2022/08/30 10:05:48;;;;;;;4.18;1.48;;;;;;;38.59;25.91;101689.75;5053373;28;20040;-63
2022/08/30 10:08:19;;;;;;;2.90;1.58;;;;;;;38.49;26.49;101687.06;5053773;28;20043;-63
2022/08/30 10:10:58;;;;;;;1.52;1.10;;;;;;;38.78;26.20;101690.75;5053380;28;20025;-63
2022/08/30 10:14:01;;;;;;;3.95;1.40;;;;;;;38.72;26.30;101689.09;5035384;28;20044;-61
2022/08/30 10:16:59;;;;;;;6.30;1.33;;;;;;;38.89;26.51;101684.69;5053393;28;20470;-62
2022/08/30 10:19:30;;;;;;;1.77;1.20;;;;;;;39.11;26.13;101686.16;5035077;28;20048;-62
2022/08/30 10:22:11;;;;;;;3.03;1.40;;;;;;;39.32;25.89;101677.19;5051865;28;20060;-62
2022/08/30 10:24:41;;;;;;;2.93;1.43;;;;;;;39.54;25.40;101674.66;5052061;28;20052;-62
2022/08/30 10:27:29;;;;;;;3.22;1.35;;;;;;;39.70;25.91;101677.28;5052052;28;20727;-63
2022/08/30 10:30:00;;;;;;;4.55;1.48;;;;;;;39.78;25.73;101685.84;5053135;28;20028;-62
2022/08/30 10:32:38;;;;;;;3.15;1.38;;;;;;;39.90;24.84;101685.34;5052192;28;20052;-62
2022/08/30 10:35:10;;;;;;;2.25;1.00;;;;;;;39.97;24.73;101689.47;5053034;28;20040;-61
2022/08/30 10:37:39;;;;;;;;;;;;;;;40.02;25.39;101688.53;5052193;28;20079;-62
2022/08/30 10:43:02;;;;;;;4.82;1.45;;;;;;;39.66;25.17;101684.63;5051922;28;20071;-59
2022/08/30 10:45:29;;;;;;;6.72;1.67;;;;;;;39.82;24.81;101669.19;5051925;28;20044;-60
2022/08/30 10:48:17;;;;;;;4.90;1.83;;;;;;;39.92;25.11;101663.44;5035325;28;20055;-60
2022/08/30 10:50:52;;;;;;;3.13;1.80;;;;;;;40.04;25.50;101680.63;5051779;28;20407;-59
2022/08/30 10:53:24;;;;;;;5.97;2.30;;;;;;;40.18;24.47;101680.75;5052882;28;20089;-59
2022/08/30 10:55:57;;;;;;;9.32;1.63;;;;;;;40.41;24.34;101674.16;5033573;28;20025;-60
2022/08/30 10:58:23;;;;;;;7.28;2.15;;;;;;;40.69;24.81;101670.28;5032030;28;20029;-60
2022/08/30 11:01:18;;;;;;;8.68;2.13;;;;;;;41.14;24.39;101665.75;4998880;28;20164;-60
2022/08/30 11:03:55;;;;;;;5.82;2.05;;;;;;;41.49;24.02;101664.97;5021351;28;20036;-60
2022/08/30 11:06:32;;;;;;;5.15;2.17;;;;;;;41.64;23.73;101655.34;5044137;28;20459;-60
2022/08/30 11:09:16;;;;;;;3.20;2.00;;;;;;;41.69;23.75;101664.50;5043220;28;20068;-60
2022/08/30 11:11:45;;;;;;;3.58;1.48;;;;;;;41.73;23.82;101654.31;5044170;28;20017;-60
2022/08/30 11:14:13;;;;;;;6.65;1.98;;;;;;;41.91;23.39;101665.72;5045486;28;20025;-60
2022/08/30 11:16:41;;;;;;;4.88;2.10;;;;;;;42.00;23.25;101669.44;5038310;28;20108;-59
2022/08/30 11:19:33;;;;;;;8.02;2.25;;;;;;;42.04;23.28;101657.22;5043296;28;20021;-60
2022/08/30 11:22:15;;;;;;;4.13;1.70;;;;;;;42.01;23.11;101649.41;5045231;28;20507;-60
2022/08/30 11:25:00;;;;;;;;;;;;;;;42.05;23.66;101653.22;5044547;28;20501;-60
2022/08/30 11:27:38;;;;;;;1.88;1.27;;;;;;;41.89;23.25;101639.84;5045825;28;19980;-60
2022/08/30 11:30:25;;;;;;;7.30;1.38;;;;;;;42.03;22.97;101641.47;5044798;28;20020;-60
2022/08/30 11:33:08;;;;;;;7.93;1.63;;;;;;;42.29;22.64;101655.75;5049545;28;20474;-60
2022/08/30 11:35:43;;;;;;;6.03;1.95;;;;;;;42.40;22.68;101650.66;5055254;28;20024;-60
2022/08/30 11:38:24;;;;;;;3.63;1.77;;;;;;;42.50;22.55;101645.59;5055282;28;20029;-59